Time;durP1;ratioP1;P1;durP2;ratioP2;P2;SDS_P1;SDS_P2;PMS_P1;PMS_P2;Temp;Humidity;BMP_temperature;BMP_pressure;BME280_temperature;BME280_humidity;BME280_pressure;Samples;Min_cycle;Max_cycle;Signal;HPM_P1;HPM_P2
2023/10/14 00:01:04;;;;;;;1999.90;999.90;;;;;;;;;;5064847;28;20226;-64
2023/10/14 00:03:33;;;;;;;1999.90;999.90;;;;;;;;;;5064920;28;20199;-64
2023/10/14 00:06:02;;;;;;;1999.90;999.90;;;;;;;;;;5074055;28;20193;-63
2023/10/14 00:08:31;;;;;;;1999.90;999.90;;;;;;;;;;5085925;28;20189;-62
2023/10/14 00:11:01;;;;;;;1999.90;999.90;;;;;;;;;;5086596;28;20623;-63
2023/10/14 00:13:32;;;;;;;1999.90;999.90;;;;;;;;;;5084800;28;20195;-63
2023/10/14 00:16:08;;;;;;;1999.90;999.90;;;;;;;;;;5086896;28;20176;-63
2023/10/14 00:18:42;;;;;;;1999.90;999.90;;;;;;;;;;5084375;28;20192;-63
2023/10/14 00:21:12;;;;;;;1999.90;999.90;;;;;;;;;;5085828;28;20185;-63
2023/10/14 00:23:39;;;;;;;1999.90;999.90;;;;;;;;;;5086274;28;20206;-63
2023/10/14 00:26:14;;;;;;;1999.90;999.90;;;;;;;;;;5084368;28;20667;-62
2023/10/14 00:28:42;;;;;;;1999.90;999.90;;;;;;;;;;5086598;28;20188;-63
2023/10/14 00:31:11;;;;;;;1999.90;999.90;;;;;;;;;;5084435;28;20229;-65
2023/10/14 00:33:39;;;;;;;1999.90;999.90;;;;;;;;;;5086360;28;20187;-64
2023/10/14 00:36:10;;;;;;;1999.90;999.90;;;;;;;;;;5068436;28;20189;-63
2023/10/14 00:38:38;;;;;;;1999.90;999.90;;;;;;;;;;5044119;28;20196;-63
2023/10/14 00:41:09;;;;;;;1999.90;999.90;;;;;;;;;;5045831;28;20202;-63
2023/10/14 00:43:36;;;;;;;1999.90;999.90;;;;;;;;;;5044980;28;20195;-61
2023/10/14 00:46:07;;;;;;;1999.90;999.90;;;;;;;;;;5044868;28;20258;-61
2023/10/14 00:48:40;;;;;;;1999.90;999.90;;;;;;;;;;5045095;28;20190;-61
2023/10/14 00:51:10;;;;;;;1999.90;999.90;;;;;;;;;;5045797;28;20208;-64
2023/10/14 00:53:39;;;;;;;1999.90;999.90;;;;;;;;;;5045976;28;20543;-63
2023/10/14 00:56:17;;;;;;;1999.90;999.90;;;;;;;;;;5044570;28;20249;-66
2023/10/14 00:58:50;;;;;;;1999.90;999.90;;;;;;;;;;5062294;28;20198;-62
2023/10/14 01:01:18;;;;;;;1999.90;999.90;;;;;;;;;;5063046;28;20543;-65
2023/10/14 01:03:49;;;;;;;1999.90;999.90;;;;;;;;;;5065972;28;20275;-64
2023/10/14 01:06:23;;;;;;;1999.90;999.90;;;;;;;;;;5073868;28;20199;-64
2023/10/14 01:08:52;;;;;;;1999.90;999.90;;;;;;;;;;5087461;28;20185;-68
2023/10/14 01:11:21;;;;;;;1999.90;999.90;;;;;;;;;;5089758;28;20223;-63
2023/10/14 01:13:51;;;;;;;1999.90;999.90;;;;;;;;;;5088666;28;20256;-64
2023/10/14 01:16:24;;;;;;;1999.90;999.90;;;;;;;;;;5089355;28;20195;-68
2023/10/14 01:18:51;;;;;;;1999.90;999.90;;;;;;;;;;5088677;28;20205;-67
2023/10/14 01:21:20;;;;;;;1999.90;999.90;;;;;;;;;;5089792;28;20199;-68
2023/10/14 01:23:58;;;;;;;1999.90;999.90;;;;;;;;;;5089290;28;20194;-63
2023/10/14 01:26:26;;;;;;;1999.90;999.90;;;;;;;;;;5088128;28;20217;-61
2023/10/14 01:28:59;;;;;;;1999.90;999.90;;;;;;;;;;5089819;28;20187;-61
2023/10/14 01:31:42;;;;;;;1999.90;999.90;;;;;;;;;;5088278;28;20566;-64
2023/10/14 01:34:24;;;;;;;1999.90;999.90;;;;;;;;;;5088943;28;20239;-66
2023/10/14 01:36:51;;;;;;;1999.90;999.90;;;;;;;;;;5049067;28;20180;-60
2023/10/14 01:39:26;;;;;;;1999.90;999.90;;;;;;;;;;5048483;28;20556;-66
2023/10/14 01:41:54;;;;;;;1999.90;999.90;;;;;;;;;;5049954;28;20214;-60
2023/10/14 01:44:22;;;;;;;1999.90;999.90;;;;;;;;;;5046004;28;20204;-62
2023/10/14 01:46:54;;;;;;;1999.90;999.90;;;;;;;;;;5049820;28;20663;-59
2023/10/14 01:49:23;;;;;;;1999.90;999.90;;;;;;;;;;5047576;28;20260;-59
2023/10/14 01:51:50;;;;;;;1999.90;999.90;;;;;;;;;;5049206;28;20364;-61
2023/10/14 01:54:18;;;;;;;1999.90;999.90;;;;;;;;;;5046570;28;20203;-60
2023/10/14 01:56:47;;;;;;;1999.90;999.90;;;;;;;;;;5048235;28;20210;-62
2023/10/14 01:59:16;;;;;;;1999.90;999.90;;;;;;;;;;5048725;28;20222;-61
2023/10/14 02:01:43;;;;;;;1999.90;999.90;;;;;;;;;;5047942;28;20303;-61
2023/10/14 02:04:13;;;;;;;1999.90;999.90;;;;;;;;;;5047728;28;20214;-61
2023/10/14 02:06:47;;;;;;;1999.90;999.90;;;;;;;;;;5075405;28;20190;-63
2023/10/14 02:09:17;;;;;;;1999.90;999.90;;;;;;;;;;5088579;28;20655;-62
2023/10/14 02:11:47;;;;;;;1999.90;999.90;;;;;;;;;;5086481;28;20229;-62
2023/10/14 02:14:22;;;;;;;1999.90;999.90;;;;;;;;;;5067323;28;20237;-64
2023/10/14 02:16:50;;;;;;;1999.90;999.90;;;;;;;;;;5067557;28;20206;-62
2023/10/14 02:19:21;;;;;;;1999.90;999.90;;;;;;;;;;5066580;28;20187;-63
2023/10/14 02:21:57;;;;;;;1999.90;999.90;;;;;;;;;;5068762;28;20179;-62
2023/10/14 02:24:27;;;;;;;1999.90;999.90;;;;;;;;;;5067510;28;20182;-62
2023/10/14 02:26:56;;;;;;;1999.90;999.90;;;;;;;;;;5068250;28;20269;-62
2023/10/14 02:29:26;;;;;;;1999.90;999.90;;;;;;;;;;5068496;28;20253;-62
2023/10/14 02:31:53;;;;;;;1999.90;999.90;;;;;;;;;;5065411;28;20711;-62
2023/10/14 02:34:20;;;;;;;1999.90;999.90;;;;;;;;;;5067657;28;20662;-62
2023/10/14 02:36:51;;;;;;;1999.90;999.90;;;;;;;;;;5067052;28;20191;-62
2023/10/14 02:39:25;;;;;;;1999.90;999.90;;;;;;;;;;5068138;28;20229;-64
2023/10/14 02:41:59;;;;;;;1999.90;999.90;;;;;;;;;;5066756;28;20186;-63
2023/10/14 02:44:30;;;;;;;1999.90;999.90;;;;;;;;;;5065673;28;20210;-63
2023/10/14 02:47:03;;;;;;;1999.90;999.90;;;;;;;;;;5067997;28;20179;-64
2023/10/14 02:49:35;;;;;;;1999.90;999.90;;;;;;;;;;5066471;28;20179;-65
2023/10/14 02:52:08;;;;;;;1999.90;999.90;;;;;;;;;;5067559;28;20219;-63
2023/10/14 02:54:36;;;;;;;1999.90;999.90;;;;;;;;;;5066362;28;20195;-63
2023/10/14 02:57:14;;;;;;;1999.90;999.90;;;;;;;;;;5066092;28;20282;-64
2023/10/14 02:59:47;;;;;;;1999.90;999.90;;;;;;;;;;5068088;28;20187;-63
2023/10/14 03:02:16;;;;;;;1999.90;999.90;;;;;;;;;;5065217;28;20179;-63
2023/10/14 03:04:54;;;;;;;1999.90;999.90;;;;;;;;;;5067882;28;20290;-63
2023/10/14 03:07:25;;;;;;;1999.90;999.90;;;;;;;;;;5078845;28;20506;-63
2023/10/14 03:09:53;;;;;;;1999.90;999.90;;;;;;;;;;5067597;28;20175;-63
2023/10/14 03:12:21;;;;;;;1999.90;999.90;;;;;;;;;;5064871;28;20231;-66
2023/10/14 03:14:51;;;;;;;1999.90;999.90;;;;;;;;;;5065623;28;20195;-64
2023/10/14 03:17:24;;;;;;;1999.90;999.90;;;;;;;;;;5065537;28;20203;-63
2023/10/14 03:19:53;;;;;;;1999.90;999.90;;;;;;;;;;5066494;28;20180;-64
2023/10/14 03:22:23;;;;;;;1999.90;999.90;;;;;;;;;;5066853;28;20187;-65
2023/10/14 03:24:51;;;;;;;1999.90;999.90;;;;;;;;;;5067011;28;20195;-63
2023/10/14 03:27:20;;;;;;;1999.90;999.90;;;;;;;;;;5065146;28;20579;-64
2023/10/14 03:29:54;;;;;;;1999.90;999.90;;;;;;;;;;5067200;28;20609;-63
2023/10/14 03:32:32;;;;;;;1999.90;999.90;;;;;;;;;;5064592;28;20319;-64
2023/10/14 03:35:03;;;;;;;1999.90;999.90;;;;;;;;;;5067100;28;20187;-63
2023/10/14 03:37:35;;;;;;;1999.90;999.90;;;;;;;;;;5065326;28;20179;-63
2023/10/14 03:42:54;;;;;;;1999.90;999.90;;;;;;;;;;5059277;28;20214;-62
2023/10/14 03:45:22;;;;;;;1999.90;999.90;;;;;;;;;;5065774;28;20237;-64
2023/10/14 03:47:52;;;;;;;1999.90;999.90;;;;;;;;;;5065660;28;20567;-63
2023/10/14 03:50:24;;;;;;;1999.90;999.90;;;;;;;;;;5065041;28;20634;-62
2023/10/14 03:52:53;;;;;;;1999.90;999.90;;;;;;;;;;5065887;28;20685;-63
2023/10/14 03:55:24;;;;;;;1999.90;999.90;;;;;;;;;;5065970;28;20202;-63
2023/10/14 03:58:03;;;;;;;1999.90;999.90;;;;;;;;;;5066498;28;20253;-63
2023/10/14 04:00:36;;;;;;;1999.90;999.90;;;;;;;;;;5066368;28;20696;-64
2023/10/14 04:03:12;;;;;;;1999.90;999.90;;;;;;;;;;5065287;28;20211;-63
2023/10/14 04:05:41;;;;;;;1999.90;999.90;;;;;;;;;;5071372;28;20796;-64
2023/10/14 04:08:08;;;;;;;1999.90;999.90;;;;;;;;;;5085450;28;20247;-63
2023/10/14 04:10:43;;;;;;;1999.90;999.90;;;;;;;;;;5085093;28;20221;-64
2023/10/14 04:13:13;;;;;;;1999.90;999.90;;;;;;;;;;5086282;28;20216;-64
2023/10/14 04:15:48;;;;;;;1999.90;999.90;;;;;;;;;;5085409;28;20197;-64
2023/10/14 04:18:24;;;;;;;1999.90;999.90;;;;;;;;;;5086569;28;20645;-65
2023/10/14 04:21:06;;;;;;;1999.90;999.90;;;;;;;;;;5085601;28;20664;-64
2023/10/14 04:23:38;;;;;;;1999.90;999.90;;;;;;;;;;5086022;28;20222;-65
2023/10/14 04:26:11;;;;;;;1999.90;999.90;;;;;;;;;;5086161;28;20195;-67
2023/10/14 04:28:53;;;;;;;1999.90;999.90;;;;;;;;;;5084106;28;20584;-64
2023/10/14 04:31:26;;;;;;;1999.90;999.90;;;;;;;;;;5086912;28;20664;-63
2023/10/14 04:33:55;;;;;;;1999.90;999.90;;;;;;;;;;5083816;28;20287;-63
2023/10/14 04:36:42;;;;;;;1999.90;999.90;;;;;;;;;;5066190;28;20190;-63
2023/10/14 04:39:14;;;;;;;1999.90;999.90;;;;;;;;;;5066300;28;20245;-63
2023/10/14 04:44:45;;;;;;;1999.90;999.90;;;;;;;;;;5059269;28;20885;-64
2023/10/14 04:47:19;;;;;;;1999.90;999.90;;;;;;;;;;5069326;28;20181;-63
2023/10/14 04:49:51;;;;;;;1999.90;999.90;;;;;;;;;;5069698;28;20190;-64
2023/10/14 04:52:19;;;;;;;1999.90;999.90;;;;;;;;;;5069981;28;20229;-63
2023/10/14 04:54:53;;;;;;;1999.90;999.90;;;;;;;;;;5067719;28;20213;-65
2023/10/14 04:57:21;;;;;;;1999.90;999.90;;;;;;;;;;5070110;28;20187;-64
2023/10/14 04:59:53;;;;;;;1999.90;999.90;;;;;;;;;;5068666;28;20641;-63
2023/10/14 05:02:21;;;;;;;1999.90;999.90;;;;;;;;;;5069757;28;20270;-63
2023/10/14 05:04:53;;;;;;;1999.90;999.90;;;;;;;;;;5069190;28;20194;-64
2023/10/14 05:07:21;;;;;;;1999.90;999.90;;;;;;;;;;5087159;28;20363;-65
2023/10/14 05:10:05;;;;;;;1999.90;999.90;;;;;;;;;;5089929;28;20656;-64
2023/10/14 05:12:40;;;;;;;1999.90;999.90;;;;;;;;;;5088505;28;20212;-64
2023/10/14 05:15:19;;;;;;;1999.90;999.90;;;;;;;;;;5090038;28;20527;-64
2023/10/14 05:17:47;;;;;;;1999.90;999.90;;;;;;;;;;5088861;28;20179;-64
2023/10/14 05:20:19;;;;;;;1999.90;999.90;;;;;;;;;;5089640;28;20218;-63
2023/10/14 05:22:47;;;;;;;1999.90;999.90;;;;;;;;;;5089311;28;20177;-64
2023/10/14 05:25:16;;;;;;;1999.90;999.90;;;;;;;;;;5088783;28;20290;-63
2023/10/14 05:27:55;;;;;;;1999.90;999.90;;;;;;;;;;5089411;28;20226;-63
2023/10/14 05:30:22;;;;;;;1999.90;999.90;;;;;;;;;;5088734;28;20235;-64
2023/10/14 05:32:51;;;;;;;1999.90;999.90;;;;;;;;;;5088966;28;20226;-64
2023/10/14 05:35:22;;;;;;;1999.90;999.90;;;;;;;;;;5079388;28;20244;-64
2023/10/14 05:37:50;;;;;;;1999.90;999.90;;;;;;;;;;5068476;28;20707;-63
2023/10/14 05:40:21;;;;;;;1999.90;999.90;;;;;;;;;;5067952;28;20629;-63
2023/10/14 05:42:48;;;;;;;1999.90;999.90;;;;;;;;;;5067525;28;20273;-61
2023/10/14 05:45:17;;;;;;;1999.90;999.90;;;;;;;;;;5069135;28;20283;-67
2023/10/14 05:47:46;;;;;;;1999.90;999.90;;;;;;;;;;5067444;28;20271;-65
2023/10/14 05:50:15;;;;;;;1999.90;999.90;;;;;;;;;;5069040;28;20214;-64
2023/10/14 05:52:47;;;;;;;1999.90;999.90;;;;;;;;;;5068200;28;20556;-63
2023/10/14 05:55:19;;;;;;;1999.90;999.90;;;;;;;;;;5067306;28;20208;-63
2023/10/14 05:57:47;;;;;;;1999.90;999.90;;;;;;;;;;5068744;28;20513;-62
2023/10/14 06:00:25;;;;;;;1999.90;999.90;;;;;;;;;;5067564;28;20626;-65
2023/10/14 06:02:53;;;;;;;1999.90;999.90;;;;;;;;;;5068435;28;20190;-63
2023/10/14 06:05:24;;;;;;;1999.90;999.90;;;;;;;;;;5069050;28;20284;-64
2023/10/14 06:07:59;;;;;;;1999.90;999.90;;;;;;;;;;5088522;28;20196;-63
2023/10/14 06:10:29;;;;;;;1999.90;999.90;;;;;;;;;;5088890;28;20270;-62
2023/10/14 06:12:57;;;;;;;1999.90;999.90;;;;;;;;;;5085334;28;20585;-62
2023/10/14 06:15:25;;;;;;;1999.90;999.90;;;;;;;;;;5088656;28;20205;-62
2023/10/14 06:17:55;;;;;;;1999.90;999.90;;;;;;;;;;5087673;28;20224;-62
2023/10/14 06:20:23;;;;;;;1999.90;999.90;;;;;;;;;;5088892;28;20220;-62
2023/10/14 06:22:56;;;;;;;1999.90;999.90;;;;;;;;;;5087698;28;20215;-62
2023/10/14 06:25:26;;;;;;;1999.90;999.90;;;;;;;;;;5076208;28;20252;-66
2023/10/14 06:27:53;;;;;;;1999.90;999.90;;;;;;;;;;5067782;28;21034;-64
2023/10/14 06:30:21;;;;;;;1999.90;999.90;;;;;;;;;;5067227;28;20196;-64
2023/10/14 06:32:49;;;;;;;1999.90;999.90;;;;;;;;;;5067910;28;20232;-64
2023/10/14 06:35:17;;;;;;;1999.90;999.90;;;;;;;;;;5067087;28;20184;-64
2023/10/14 06:37:45;;;;;;;1999.90;999.90;;;;;;;;;;5067581;28;21242;-70
2023/10/14 06:40:14;;;;;;;1999.90;999.90;;;;;;;;;;5067322;28;20207;-65
2023/10/14 06:42:44;;;;;;;1999.90;999.90;;;;;;;;;;5065388;28;20203;-65
2023/10/14 06:45:14;;;;;;;1999.90;999.90;;;;;;;;;;5068108;28;20200;-64
2023/10/14 06:47:47;;;;;;;1999.90;999.90;;;;;;;;;;5066390;28;20200;-64
2023/10/14 06:50:15;;;;;;;1999.90;999.90;;;;;;;;;;5067897;28;20189;-68
2023/10/14 06:52:42;;;;;;;1999.90;999.90;;;;;;;;;;5066175;28;20237;-64
2023/10/14 06:55:09;;;;;;;1999.90;999.90;;;;;;;;;;5065815;28;20194;-63
2023/10/14 06:57:37;;;;;;;1999.90;999.90;;;;;;;;;;5065302;28;20211;-69
2023/10/14 07:00:11;;;;;;;1999.90;999.90;;;;;;;;;;5066903;28;20207;-63
2023/10/14 07:02:39;;;;;;;1999.90;999.90;;;;;;;;;;5067339;28;20239;-64
2023/10/14 07:05:09;;;;;;;1999.90;999.90;;;;;;;;;;5066369;28;20192;-63
2023/10/14 07:07:37;;;;;;;1999.90;999.90;;;;;;;;;;5064037;28;20201;-63
2023/10/14 07:10:06;;;;;;;1999.90;999.90;;;;;;;;;;5064713;28;20200;-66
2023/10/14 07:12:37;;;;;;;1999.90;999.90;;;;;;;;;;5066597;28;20216;-64
2023/10/14 07:15:12;;;;;;;1999.90;999.90;;;;;;;;;;5066095;28;20640;-63
2023/10/14 07:17:40;;;;;;;1999.90;999.90;;;;;;;;;;5065933;28;20652;-62
2023/10/14 07:20:10;;;;;;;1999.90;999.90;;;;;;;;;;5066829;28;20198;-65
2023/10/14 07:22:37;;;;;;;1999.90;999.90;;;;;;;;;;5065058;28;20269;-65
2023/10/14 07:25:06;;;;;;;1999.90;999.90;;;;;;;;;;5066564;28;20201;-68
2023/10/14 07:27:35;;;;;;;1999.90;999.90;;;;;;;;;;5065432;28;20233;-69
2023/10/14 07:30:13;;;;;;;1999.90;999.90;;;;;;;;;;5065519;28;20982;-66
2023/10/14 07:32:43;;;;;;;1999.90;999.90;;;;;;;;;;5066462;28;20894;-67
2023/10/14 07:35:14;;;;;;;1999.90;999.90;;;;;;;;;;5064317;28;20601;-65
2023/10/14 07:37:44;;;;;;;1999.90;999.90;;;;;;;;;;5066514;28;20205;-68
2023/10/14 07:40:22;;;;;;;1999.90;999.90;;;;;;;;;;5063559;28;20198;-66
2023/10/14 07:42:52;;;;;;;1999.90;999.90;;;;;;;;;;5065598;28;20643;-65
2023/10/14 07:45:19;;;;;;;1999.90;999.90;;;;;;;;;;5066335;28;20194;-62
2023/10/14 07:47:48;;;;;;;1999.90;999.90;;;;;;;;;;5064193;28;20201;-63
2023/10/14 07:50:16;;;;;;;1999.90;999.90;;;;;;;;;;5066778;28;20273;-62
2023/10/14 07:52:46;;;;;;;1999.90;999.90;;;;;;;;;;5064706;28;20248;-62
2023/10/14 07:55:19;;;;;;;1999.90;999.90;;;;;;;;;;5065438;28;20901;-64
2023/10/14 07:57:48;;;;;;;1999.90;999.90;;;;;;;;;;5063856;28;20202;-63
2023/10/14 08:00:16;;;;;;;1999.90;999.90;;;;;;;;;;5066946;28;20273;-64
2023/10/14 08:02:43;;;;;;;1999.90;999.90;;;;;;;;;;5066004;28;21068;-62
2023/10/14 08:05:12;;;;;;;1999.90;999.90;;;;;;;;;;5066116;28;20199;-63
2023/10/14 08:07:44;;;;;;;1999.90;999.90;;;;;;;;;;5086995;28;20194;-63
2023/10/14 08:10:19;;;;;;;1999.90;999.90;;;;;;;;;;5085218;28;20202;-65
2023/10/14 08:12:46;;;;;;;1999.90;999.90;;;;;;;;;;5084715;28;20221;-65
2023/10/14 08:15:14;;;;;;;1999.90;999.90;;;;;;;;;;5085644;28;20202;-63
2023/10/14 08:17:42;;;;;;;1999.90;999.90;;;;;;;;;;5085827;28;20198;-62
2023/10/14 08:20:13;;;;;;;1999.90;999.90;;;;;;;;;;5069162;28;20213;-62
2023/10/14 08:22:44;;;;;;;1999.90;999.90;;;;;;;;;;5060679;28;20216;-62
2023/10/14 08:25:12;;;;;;;1999.90;999.90;;;;;;;;;;5064178;28;20273;-63
2023/10/14 08:27:40;;;;;;;1999.90;999.90;;;;;;;;;;5064462;28;20653;-62
2023/10/14 08:30:11;;;;;;;1999.90;999.90;;;;;;;;;;5065387;28;20179;-63
2023/10/14 08:32:39;;;;;;;1999.90;999.90;;;;;;;;;;5064365;28;20650;-62
2023/10/14 08:35:14;;;;;;;1999.90;999.90;;;;;;;;;;5065044;28;20187;-63
2023/10/14 08:37:48;;;;;;;1999.90;999.90;;;;;;;;;;5063310;28;20192;-62
2023/10/14 08:40:17;;;;;;;1999.90;999.90;;;;;;;;;;5063975;28;20177;-62
2023/10/14 08:42:53;;;;;;;1999.90;999.90;;;;;;;;;;5065869;28;20203;-65
2023/10/14 08:45:21;;;;;;;1999.90;999.90;;;;;;;;;;5065186;28;20198;-62
2023/10/14 08:47:52;;;;;;;1999.90;999.90;;;;;;;;;;5066099;28;20209;-62
2023/10/14 08:50:21;;;;;;;1999.90;999.90;;;;;;;;;;5064990;28;20192;-62
2023/10/14 08:52:51;;;;;;;1999.90;999.90;;;;;;;;;;5064518;28;20199;-62
2023/10/14 08:55:20;;;;;;;1999.90;999.90;;;;;;;;;;5066291;28;20190;-62
2023/10/14 08:57:47;;;;;;;1999.90;999.90;;;;;;;;;;5064935;28;20275;-62
2023/10/14 09:00:19;;;;;;;1999.90;999.90;;;;;;;;;;5065727;28;20706;-62
2023/10/14 09:02:48;;;;;;;1999.90;999.90;;;;;;;;;;5064621;28;20187;-63
2023/10/14 09:05:16;;;;;;;1999.90;999.90;;;;;;;;;;5065507;28;20187;-62
2023/10/14 09:07:44;;;;;;;1999.90;999.90;;;;;;;;;;5065549;28;20199;-63
2023/10/14 09:10:15;;;;;;;1999.90;999.90;;;;;;;;;;5064757;28;20268;-65
2023/10/14 09:12:55;;;;;;;1999.90;999.90;;;;;;;;;;5064571;28;20207;-63
2023/10/14 09:15:22;;;;;;;1999.90;999.90;;;;;;;;;;5065227;28;20190;-66
2023/10/14 09:17:49;;;;;;;1999.90;999.90;;;;;;;;;;5066222;28;20193;-64
2023/10/14 09:20:28;;;;;;;1999.90;999.90;;;;;;;;;;5064515;28;20234;-63
2023/10/14 09:23:11;;;;;;;1999.90;999.90;;;;;;;;;;5065034;28;20205;-63
2023/10/14 09:25:42;;;;;;;1999.90;999.90;;;;;;;;;;5066500;28;20189;-63
2023/10/14 09:28:10;;;;;;;1999.90;999.90;;;;;;;;;;5063889;28;20225;-62
2023/10/14 09:30:37;;;;;;;1999.90;999.90;;;;;;;;;;5068117;28;20194;-62
2023/10/14 09:33:06;;;;;;;1999.90;999.90;;;;;;;;;;5066743;28;20202;-62
2023/10/14 09:35:34;;;;;;;1999.90;999.90;;;;;;;;;;5068722;28;20202;-63
2023/10/14 09:38:01;;;;;;;1999.90;999.90;;;;;;;;;;5068332;28;20834;-63
2023/10/14 09:40:28;;;;;;;1999.90;999.90;;;;;;;;;;5066410;28;20244;-66
2023/10/14 09:42:58;;;;;;;1999.90;999.90;;;;;;;;;;5068460;28;20184;-62
2023/10/14 09:45:26;;;;;;;1999.90;999.90;;;;;;;;;;5067814;28;20191;-62
2023/10/14 09:47:57;;;;;;;1999.90;999.90;;;;;;;;;;5069051;28;20609;-64
2023/10/14 09:50:25;;;;;;;1999.90;999.90;;;;;;;;;;5067920;28;20179;-61
2023/10/14 09:52:53;;;;;;;1999.90;999.90;;;;;;;;;;5068383;28;20221;-61
2023/10/14 09:55:21;;;;;;;1999.90;999.90;;;;;;;;;;5066991;28;20685;-60
2023/10/14 09:57:49;;;;;;;1999.90;999.90;;;;;;;;;;5066309;28;20762;-60
2023/10/14 10:00:18;;;;;;;1999.90;999.90;;;;;;;;;;5068316;28;20202;-61
2023/10/14 10:02:46;;;;;;;1999.90;999.90;;;;;;;;;;5067446;28;20211;-63
2023/10/14 10:05:17;;;;;;;1999.90;999.90;;;;;;;;;;5069599;28;20195;-63
2023/10/14 10:07:53;;;;;;;1999.90;999.90;;;;;;;;;;5076128;28;20286;-65
2023/10/14 10:10:22;;;;;;;1999.90;999.90;;;;;;;;;;5046465;28;20248;-61
2023/10/14 10:12:55;;;;;;;1999.90;999.90;;;;;;;;;;5048086;28;20601;-65
2023/10/14 10:15:24;;;;;;;1999.90;999.90;;;;;;;;;;5053205;28;20893;-60
2023/10/14 10:17:56;;;;;;;1999.90;999.90;;;;;;;;;;5062979;28;20202;-60
2023/10/14 10:20:28;;;;;;;1999.90;999.90;;;;;;;;;;5065687;28;20234;-61
2023/10/14 10:22:58;;;;;;;1999.90;999.90;;;;;;;;;;5067886;28;20666;-59
2023/10/14 10:25:47;;;;;;;1999.90;999.90;;;;;;;;;;5067240;28;20262;-61
2023/10/14 10:28:29;;;;;;;1999.90;999.90;;;;;;;;;;5066938;28;20227;-60
2023/10/14 10:30:59;;;;;;;1999.90;999.90;;;;;;;;;;5065135;28;20195;-61
2023/10/14 10:33:41;;;;;;;1999.90;999.90;;;;;;;;;;5066866;28;20206;-60
2023/10/14 10:36:11;;;;;;;1999.90;999.90;;;;;;;;;;5067512;28;20736;-63
2023/10/14 10:38:38;;;;;;;1999.90;999.90;;;;;;;;;;5068086;28;20274;-60
2023/10/14 10:41:23;;;;;;;1999.90;999.90;;;;;;;;;;5066842;28;20199;-63
2023/10/14 10:43:51;;;;;;;1999.90;999.90;;;;;;;;;;5066522;28;20207;-60
2023/10/14 10:46:31;;;;;;;1999.90;999.90;;;;;;;;;;5065688;28;20219;-64
2023/10/14 10:48:58;;;;;;;1999.90;999.90;;;;;;;;;;5065303;28;20292;-62
2023/10/14 10:51:31;;;;;;;1999.90;999.90;;;;;;;;;;5065540;28;20201;-62
2023/10/14 10:54:00;;;;;;;1999.90;999.90;;;;;;;;;;5066473;28;20654;-62
2023/10/14 10:56:30;;;;;;;1999.90;999.90;;;;;;;;;;5065173;28;20533;-63
2023/10/14 10:58:58;;;;;;;1999.90;999.90;;;;;;;;;;5065476;28;20236;-63
2023/10/14 11:01:26;;;;;;;1999.90;999.90;;;;;;;;;;5066054;28;20202;-63
2023/10/14 11:03:55;;;;;;;1999.90;999.90;;;;;;;;;;5065665;28;20195;-63
2023/10/14 11:06:24;;;;;;;1999.90;999.90;;;;;;;;;;5067657;28;20207;-63
2023/10/14 11:08:51;;;;;;;1999.90;999.90;;;;;;;;;;5066227;28;20584;-62
2023/10/14 11:11:20;;;;;;;1999.90;999.90;;;;;;;;;;5065159;28;20220;-63
2023/10/14 11:13:47;;;;;;;1999.90;999.90;;;;;;;;;;5066494;28;20292;-63
2023/10/14 11:16:14;;;;;;;1999.90;999.90;;;;;;;;;;5065035;28;20202;-62
2023/10/14 11:18:48;;;;;;;1999.90;999.90;;;;;;;;;;5066565;28;20204;-62
2023/10/14 11:21:18;;;;;;;1999.90;999.90;;;;;;;;;;5064468;28;20201;-62
2023/10/14 11:23:45;;;;;;;1999.90;999.90;;;;;;;;;;5066321;28;20206;-62
2023/10/14 11:26:15;;;;;;;1999.90;999.90;;;;;;;;;;5065063;28;20248;-63
2023/10/14 11:28:45;;;;;;;1999.90;999.90;;;;;;;;;;5063261;28;20187;-66
2023/10/14 11:31:12;;;;;;;1999.90;999.90;;;;;;;;;;5064077;28;20725;-63
2023/10/14 11:33:40;;;;;;;1999.90;999.90;;;;;;;;;;5065630;28;20206;-63
2023/10/14 11:36:07;;;;;;;1999.90;999.90;;;;;;;;;;5066398;28;20214;-65
2023/10/14 11:38:44;;;;;;;1999.90;999.90;;;;;;;;;;5065272;28;20191;-63
2023/10/14 11:41:12;;;;;;;1999.90;999.90;;;;;;;;;;5066219;28;20653;-62
2023/10/14 11:43:43;;;;;;;1999.90;999.90;;;;;;;;;;5066423;28;20240;-62
2023/10/14 11:46:10;;;;;;;1999.90;999.90;;;;;;;;;;5065342;28;20576;-64
2023/10/14 11:48:39;;;;;;;1999.90;999.90;;;;;;;;;;5066629;28;20195;-63
2023/10/14 11:51:11;;;;;;;1999.90;999.90;;;;;;;;;;5065023;28;20210;-62
2023/10/14 11:53:44;;;;;;;1999.90;999.90;;;;;;;;;;5065833;28;20598;-62
2023/10/14 11:56:14;;;;;;;1999.90;999.90;;;;;;;;;;5065821;28;20197;-62
2023/10/14 11:58:41;;;;;;;1999.90;999.90;;;;;;;;;;5066218;28;20210;-62
2023/10/14 12:01:10;;;;;;;1999.90;999.90;;;;;;;;;;5066096;28;20650;-62
2023/10/14 12:03:37;;;;;;;1999.90;999.90;;;;;;;;;;5065030;28;20200;-62
2023/10/14 12:06:05;;;;;;;1999.90;999.90;;;;;;;;;;5075101;28;20200;-62
2023/10/14 12:08:36;;;;;;;1999.90;999.90;;;;;;;;;;5083340;28;20564;-63
2023/10/14 12:11:05;;;;;;;1999.90;999.90;;;;;;;;;;5086416;28;20237;-62
2023/10/14 12:13:33;;;;;;;1999.90;999.90;;;;;;;;;;5085031;28;20202;-62
2023/10/14 12:15:59;;;;;;;1999.90;999.90;;;;;;;;;;5085984;28;20216;-62
2023/10/14 12:18:28;;;;;;;1999.90;999.90;;;;;;;;;;5083837;28;20204;-61
2023/10/14 12:20:56;;;;;;;1999.90;999.90;;;;;;;;;;5085282;28;20201;-63
2023/10/14 12:23:24;;;;;;;1999.90;999.90;;;;;;;;;;5084545;28;20551;-62
2023/10/14 12:25:51;;;;;;;1999.90;999.90;;;;;;;;;;5085223;28;20198;-62
2023/10/14 12:28:26;;;;;;;1999.90;999.90;;;;;;;;;;5085657;28;20226;-65
2023/10/14 12:30:56;;;;;;;1999.90;999.90;;;;;;;;;;5085017;28;20202;-62
2023/10/14 12:33:24;;;;;;;1999.90;999.90;;;;;;;;;;5085256;28;20194;-63
2023/10/14 12:35:52;;;;;;;1999.90;999.90;;;;;;;;;;5051165;28;20701;-63
2023/10/14 12:38:22;;;;;;;1999.90;999.90;;;;;;;;;;5062612;28;20285;-62
2023/10/14 12:40:50;;;;;;;1999.90;999.90;;;;;;;;;;5065501;28;20215;-62
2023/10/14 12:43:18;;;;;;;1999.90;999.90;;;;;;;;;;5065113;28;20194;-60
2023/10/14 12:45:51;;;;;;;1999.90;999.90;;;;;;;;;;5065161;28;20298;-67
2023/10/14 12:48:24;;;;;;;1999.90;999.90;;;;;;;;;;5063134;28;20187;-62
2023/10/14 12:50:51;;;;;;;1999.90;999.90;;;;;;;;;;5065180;28;20179;-63
2023/10/14 12:53:18;;;;;;;1999.90;999.90;;;;;;;;;;5065679;28;20251;-64
2023/10/14 12:55:46;;;;;;;1999.90;999.90;;;;;;;;;;5065274;28;20576;-68
2023/10/14 12:58:15;;;;;;;1999.90;999.90;;;;;;;;;;5065578;28;20207;-62
2023/10/14 13:00:43;;;;;;;1999.90;999.90;;;;;;;;;;5062628;28;20195;-63
2023/10/14 13:03:12;;;;;;;1999.90;999.90;;;;;;;;;;5064459;28;20244;-64
2023/10/14 13:05:40;;;;;;;1999.90;999.90;;;;;;;;;;5074166;28;20285;-62
2023/10/14 13:08:15;;;;;;;1999.90;999.90;;;;;;;;;;5089820;28;20213;-64
2023/10/14 13:10:42;;;;;;;1999.90;999.90;;;;;;;;;;5089505;28;20186;-65
2023/10/14 13:13:12;;;;;;;1999.90;999.90;;;;;;;;;;5088896;28;20201;-66
2023/10/14 13:15:39;;;;;;;1999.90;999.90;;;;;;;;;;5089244;28;20304;-63
2023/10/14 13:18:07;;;;;;;1999.90;999.90;;;;;;;;;;5088588;28;20255;-65
2023/10/14 13:20:36;;;;;;;1999.90;999.90;;;;;;;;;;5089045;28;20190;-62
2023/10/14 13:23:05;;;;;;;1999.90;999.90;;;;;;;;;;5089190;28;20195;-69
2023/10/14 13:25:36;;;;;;;1999.90;999.90;;;;;;;;;;5088979;28;20274;-63
2023/10/14 13:28:08;;;;;;;1999.90;999.90;;;;;;;;;;5089486;28;20230;-65
2023/10/14 13:30:36;;;;;;;1999.90;999.90;;;;;;;;;;5087782;28;20209;-63
2023/10/14 13:33:05;;;;;;;1999.90;999.90;;;;;;;;;;5089840;28;20198;-61
2023/10/14 13:35:33;;;;;;;1999.90;999.90;;;;;;;;;;5076012;28;20250;-64
2023/10/14 13:38:03;;;;;;;1999.90;999.90;;;;;;;;;;5069207;28;20195;-65
2023/10/14 13:40:32;;;;;;;1999.90;999.90;;;;;;;;;;5067605;28;20181;-67
2023/10/14 13:43:00;;;;;;;1999.90;999.90;;;;;;;;;;5068907;28;20192;-69
2023/10/14 13:45:28;;;;;;;1999.90;999.90;;;;;;;;;;5068471;28;20925;-66
2023/10/14 13:47:56;;;;;;;1999.90;999.90;;;;;;;;;;5068228;28;20575;-63
2023/10/14 13:50:23;;;;;;;1999.90;999.90;;;;;;;;;;5068933;28;20548;-64
2023/10/14 13:52:55;;;;;;;1999.90;999.90;;;;;;;;;;5067303;28;20218;-64
2023/10/14 13:55:24;;;;;;;1999.90;999.90;;;;;;;;;;5069317;28;20263;-63
2023/10/14 13:57:51;;;;;;;1999.90;999.90;;;;;;;;;;5067515;28;20557;-72
2023/10/14 14:00:35;;;;;;;1999.90;999.90;;;;;;;;;;5068043;28;20207;-64
2023/10/14 14:03:05;;;;;;;1999.90;999.90;;;;;;;;;;5068698;28;20187;-67
2023/10/14 14:05:32;;;;;;;1999.90;999.90;;;;;;;;;;5071307;28;20561;-68